Time;durP1;ratioP1;P1;durP2;ratioP2;P2;SDS_P1;SDS_P2;PMS_P1;PMS_P2;Temp;Humidity;BMP_temperature;BMP_pressure;BME280_temperature;BME280_humidity;BME280_pressure;Samples;Min_cycle;Max_cycle;Signal;HPM_P1;HPM_P2
2022/05/09 00:01:46;;;;;;;;;;;7.40;99.90;;;;;;5111743;28;19928;-74
2022/05/09 00:04:12;;;;;;;;;;;7.30;99.90;;;;;;5091203;28;20015;-74
2022/05/09 00:06:37;;;;;;;;;;;7.30;99.90;;;;;;5091768;28;20311;-75
2022/05/09 00:09:04;;;;;;;;;;;7.20;99.90;;;;;;5095924;28;19946;-74
2022/05/09 00:11:29;;;;;;;;;;;7.30;99.90;;;;;;5096442;28;20037;-75
2022/05/09 00:13:55;;;;;;;;;;;7.20;99.90;;;;;;5099086;28;19932;-75
2022/05/09 00:16:21;;;;;;;;;;;7.20;99.90;;;;;;5115399;28;19944;-75
2022/05/09 00:18:47;;;;;;;;;;;7.20;99.90;;;;;;5108393;28;19932;-74
2022/05/09 00:21:12;;;;;;;;;;;7.10;99.90;;;;;;5095648;28;19924;-74
2022/05/09 00:23:38;;;;;;;;;;;7.00;99.90;;;;;;5096394;28;19947;-74
2022/05/09 00:26:04;;;;;;;;;;;7.00;99.90;;;;;;5096058;28;20016;-74
2022/05/09 00:28:29;;;;;;;;;;;6.90;99.90;;;;;;5095422;28;19935;-74
2022/05/09 00:30:55;;;;;;;;;;;7.00;99.90;;;;;;5096275;28;20330;-75
2022/05/09 00:33:23;;;;;;;;;;;7.00;99.90;;;;;;5095290;28;19946;-78
2022/05/09 00:35:48;;;;;;;;;;;6.90;99.90;;;;;;5098452;28;20280;-74
2022/05/09 00:38:14;;;;;;;;;;;6.80;99.90;;;;;;5096144;28;19942;-74
2022/05/09 00:41:28;;;;;;;;;;;6.80;99.90;;;;;;5095263;28;20417;-76
2022/05/09 00:43:30;;;;;;;;;;;6.70;99.90;;;;;;5099358;28;19934;-75
2022/05/09 00:45:55;;;;;;;;;;;6.80;99.90;;;;;;5110710;28;19928;-75
2022/05/09 00:48:21;;;;;;;;;;;6.70;99.90;;;;;;5098599;28;19923;-74
2022/05/09 00:50:47;;;;;;;;;;;6.70;99.90;;;;;;5116017;28;20271;-74
2022/05/09 00:53:13;;;;;;;;;;;6.70;99.90;;;;;;5117052;27;19983;-77
2022/05/09 00:55:42;;;;;;;;;;;6.70;99.90;;;;;;5099087;28;19924;-74
2022/05/09 00:58:28;;;;;;;;;;;6.70;99.90;;;;;;5116181;28;19924;-73
2022/05/09 01:00:54;;;;;;;;;;;6.70;99.90;;;;;;5097074;28;19979;-74
2022/05/09 01:03:23;;;;;;;;;;;6.70;99.90;;;;;;5081446;28;19949;-74
2022/05/09 01:05:50;;;;;;;;;;;6.70;99.90;;;;;;5134994;27;20371;-74
2022/05/09 01:08:17;;;;;;;;;;;6.70;99.90;;;;;;5135668;27;19923;-75
2022/05/09 01:10:42;;;;;;;;;;;6.60;99.90;;;;;;5118381;27;20379;-74
2022/05/09 01:13:10;;;;;;;;;;;6.50;99.90;;;;;;5118302;27;20016;-75
2022/05/09 01:15:35;;;;;;;;;;;6.50;99.90;;;;;;5121101;27;19984;-85
2022/05/09 01:18:03;;;;;;;;;;;6.50;99.90;;;;;;5097201;28;19924;-74
2022/05/09 01:20:29;;;;;;;;;;;6.50;99.90;;;;;;5115717;28;19928;-74
2022/05/09 01:22:57;;;;;;;;;;;6.60;99.90;;;;;;5115689;28;20010;-75
2022/05/09 01:25:22;;;;;;;;;;;6.60;99.90;;;;;;5106587;27;19923;-74
2022/05/09 01:27:49;;;;;;;;;;;6.60;99.90;;;;;;5134749;27;20397;-74
2022/05/09 01:30:16;;;;;;;;;;;6.50;99.90;;;;;;5117932;27;19927;-75
2022/05/09 01:32:48;;;;;;;;;;;6.50;99.90;;;;;;5133985;27;19923;-74
2022/05/09 01:35:38;;;;;;;;;;;6.50;99.90;;;;;;5117595;27;20367;-74
2022/05/09 01:38:25;;;;;;;;;;;6.50;99.90;;;;;;5118676;27;19924;-74
2022/05/09 01:40:51;;;;;;;;;;;6.40;99.90;;;;;;5097211;28;19930;-74
2022/05/09 01:43:36;;;;;;;;;;;6.30;99.90;;;;;;5116338;27;19927;-74
2022/05/09 01:46:02;;;;;;;;;;;6.30;99.90;;;;;;5114742;28;19939;-74
2022/05/09 01:51:12;;;;;;;;;;;6.20;99.90;;;;;;5120415;27;19923;-74
2022/05/09 01:53:38;;;;;;;;;;;6.20;99.90;;;;;;5123247;27;19924;-74
2022/05/09 01:56:03;;;;;;;;;;;6.20;99.90;;;;;;5115811;27;19923;-74
2022/05/09 01:58:29;;;;;;;;;;;6.20;99.90;;;;;;5097035;28;20374;-74
2022/05/09 02:00:54;;;;;;;;;;;6.30;99.90;;;;;;5114945;28;19988;-76
2022/05/09 02:03:21;;;;;;;;;;;6.20;99.90;;;;;;5115912;27;19924;-76
2022/05/09 02:05:46;;;;;;;;;;;6.20;99.90;;;;;;5119616;27;19991;-74
2022/05/09 02:08:12;;;;;;;;;;;6.20;99.90;;;;;;5117033;27;19963;-75
2022/05/09 02:10:37;;;;;;;;;;;6.20;99.90;;;;;;5117041;27;19923;-76
2022/05/09 02:13:03;;;;;;;;;;;6.10;99.90;;;;;;5133680;27;19976;-74
2022/05/09 02:15:31;;;;;;;;;;;6.10;99.90;;;;;;5079752;28;19949;-74
2022/05/09 02:17:57;;;;;;;;;;;6.10;99.90;;;;;;5114789;27;19935;-74
2022/05/09 02:20:23;;;;;;;;;;;6.10;99.90;;;;;;5096537;28;20295;-74
2022/05/09 02:22:49;;;;;;;;;;;6.10;99.90;;;;;;5113077;28;19931;-74
2022/05/09 02:25:29;;;;;;;;;;;6.10;99.90;;;;;;5114324;28;19927;-76
2022/05/09 02:27:58;;;;;;;;;;;6.10;99.90;;;;;;5080551;28;20001;-74
2022/05/09 02:30:24;;;;;;;;;;;6.00;99.90;;;;;;5113414;28;19924;-74
2022/05/09 02:32:51;;;;;;;;;;;6.10;99.90;;;;;;5112783;28;19976;-75
2022/05/09 02:35:18;;;;;;;;;;;6.10;99.90;;;;;;5128423;27;19935;-74
2022/05/09 02:37:44;;;;;;;;;;;6.10;99.90;;;;;;5109104;28;19923;-74
2022/05/09 02:40:09;;;;;;;;;;;6.00;99.90;;;;;;5116868;27;20287;-74
2022/05/09 02:42:35;;;;;;;;;;;6.00;99.90;;;;;;5122730;27;20050;-77
2022/05/09 02:45:03;;;;;;;;;;;5.90;99.90;;;;;;5102783;27;19924;-74
2022/05/09 02:47:29;;;;;;;;;;;5.80;99.90;;;;;;5102089;27;19924;-74
2022/05/09 02:49:54;;;;;;;;;;;5.80;99.90;;;;;;5125130;27;19944;-74
2022/05/09 02:52:20;;;;;;;;;;;5.70;99.90;;;;;;5125866;27;20387;-75
2022/05/09 02:54:45;;;;;;;;;;;5.60;99.90;;;;;;5104739;28;19923;-75
2022/05/09 02:57:11;;;;;;;;;;;5.50;99.90;;;;;;5100053;28;19919;-75
2022/05/09 02:59:37;;;;;;;;;;;5.40;99.90;;;;;;5100839;27;19928;-74
2022/05/09 03:02:03;;;;;;;;;;;5.40;99.90;;;;;;5125087;27;19924;-75
2022/05/09 03:04:41;;;;;;;;;;;5.40;99.90;;;;;;5124001;27;19924;-75
2022/05/09 03:07:09;;;;;;;;;;;5.40;99.90;;;;;;5122931;27;19927;-75
2022/05/09 03:09:35;;;;;;;;;;;5.40;99.90;;;;;;5110612;27;19931;-75
2022/05/09 03:12:02;;;;;;;;;;;5.40;99.90;;;;;;5134137;27;19923;-75
2022/05/09 03:14:27;;;;;;;;;;;5.40;99.90;;;;;;5133990;27;19975;-76
2022/05/09 03:16:53;;;;;;;;;;;5.40;99.90;;;;;;5115256;27;20396;-75
2022/05/09 03:19:18;;;;;;;;;;;5.40;99.90;;;;;;5097509;27;19924;-75
2022/05/09 03:21:45;;;;;;;;;;;5.40;99.90;;;;;;5133940;27;19924;-75
2022/05/09 03:24:10;;;;;;;;;;;5.40;99.90;;;;;;5098639;27;20022;-75
2022/05/09 03:26:36;;;;;;;;;;;5.40;99.90;;;;;;5114977;27;20022;-75
2022/05/09 03:29:03;;;;;;;;;;;5.30;99.90;;;;;;5114146;27;19930;-74
2022/05/09 03:31:30;;;;;;;;;;;5.20;99.90;;;;;;5132428;27;20268;-75
2022/05/09 03:33:56;;;;;;;;;;;5.10;99.90;;;;;;5095313;28;19924;-75
2022/05/09 03:36:21;;;;;;;;;;;5.30;99.90;;;;;;5079988;27;20241;-75
2022/05/09 03:38:47;;;;;;;;;;;5.30;99.90;;;;;;5113188;28;20402;-74
2022/05/09 03:41:12;;;;;;;;;;;5.20;99.90;;;;;;5094988;28;19931;-75
2022/05/09 03:43:38;;;;;;;;;;;5.20;99.90;;;;;;5113498;28;19976;-76
2022/05/09 03:46:04;;;;;;;;;;;5.20;99.90;;;;;;5094282;28;20419;-74
2022/05/09 03:48:29;;;;;;;;;;;5.30;99.90;;;;;;5113129;28;20380;-75
2022/05/09 03:50:56;;;;;;;;;;;5.10;99.90;;;;;;5094703;28;20379;-85
2022/05/09 03:53:23;;;;;;;;;;;5.10;99.90;;;;;;5114169;28;20636;-75
2022/05/09 03:55:49;;;;;;;;;;;5.10;99.90;;;;;;5115770;28;19930;-74
2022/05/09 03:58:15;;;;;;;;;;;5.10;99.90;;;;;;5115469;28;20271;-75
2022/05/09 04:00:41;;;;;;;;;;;5.10;99.90;;;;;;5116781;28;20011;-74
2022/05/09 04:03:07;;;;;;;;;;;5.10;99.90;;;;;;5113007;28;19971;-75
2022/05/09 04:05:33;;;;;;;;;;;5.10;99.90;;;;;;5112830;28;20027;-75
2022/05/09 04:08:00;;;;;;;;;;;5.10;99.90;;;;;;5094520;28;19927;-75
2022/05/09 04:10:27;;;;;;;;;;;5.10;99.90;;;;;;5077819;28;20014;-75
2022/05/09 04:12:53;;;;;;;;;;;5.00;99.90;;;;;;5126524;28;19923;-74
2022/05/09 04:18:04;;;;;;;;;;;5.00;99.90;;;;;;5094676;28;19928;-75
2022/05/09 04:20:29;;;;;;;;;;;5.00;99.90;;;;;;5112764;28;19924;-74
2022/05/09 04:22:59;;;;;;;;;;;5.10;99.90;;;;;;5124730;28;19929;-75
2022/05/09 04:25:26;;;;;;;;;;;5.10;99.90;;;;;;5115268;28;19934;-76
2022/05/09 04:27:51;;;;;;;;;;;5.20;99.90;;;;;;5133471;28;19965;-75
2022/05/09 04:30:17;;;;;;;;;;;5.20;99.90;;;;;;5132912;28;19924;-75
2022/05/09 04:32:43;;;;;;;;;;;5.30;99.90;;;;;;5107257;28;19927;-75
2022/05/09 04:35:17;;;;;;;;;;;5.30;99.90;;;;;;5094462;28;19930;-75
2022/05/09 04:37:47;;;;;;;;;;;5.30;99.90;;;;;;5094939;28;19928;-75
2022/05/09 04:40:18;;;;;;;;;;;5.40;99.90;;;;;;5077756;28;19961;-74
2022/05/09 04:42:43;;;;;;;;;;;5.50;99.90;;;;;;5095421;28;20026;-74
2022/05/09 04:45:10;;;;;;;;;;;5.60;99.90;;;;;;5094646;28;20011;-75
2022/05/09 04:47:35;;;;;;;;;;;5.60;99.90;;;;;;5094116;28;19923;-74
2022/05/09 04:50:02;;;;;;;;;;;5.60;99.90;;;;;;5094345;28;19976;-75
2022/05/09 04:52:28;;;;;;;;;;;5.70;99.90;;;;;;5112647;28;19931;-75
2022/05/09 04:54:54;;;;;;;;;;;5.80;99.90;;;;;;5100584;28;19924;-75
2022/05/09 04:57:19;;;;;;;;;;;5.80;99.90;;;;;;5115539;28;19932;-75
2022/05/09 04:59:45;;;;;;;;;;;5.90;99.90;;;;;;5081038;28;19938;-75
2022/05/09 05:02:10;;;;;;;;;;;5.90;99.90;;;;;;5115612;28;20267;-75
2022/05/09 05:04:36;;;;;;;;;;;6.00;99.90;;;;;;5122216;27;20389;-75
2022/05/09 05:07:02;;;;;;;;;;;6.00;99.90;;;;;;5136056;27;20582;-75
2022/05/09 05:09:28;;;;;;;;;;;6.00;99.90;;;;;;5135975;27;19927;-74
2022/05/09 05:11:53;;;;;;;;;;;6.10;99.90;;;;;;5112661;27;19943;-74
2022/05/09 05:14:19;;;;;;;;;;;6.30;99.90;;;;;;5088931;27;19928;-75
2022/05/09 05:17:00;;;;;;;;;;;6.20;99.90;;;;;;5100434;27;20411;-75
2022/05/09 05:19:26;;;;;;;;;;;6.30;99.90;;;;;;5117424;27;19927;-77
2022/05/09 05:21:52;;;;;;;;;;;6.40;99.90;;;;;;5118621;27;19930;-75
2022/05/09 05:24:18;;;;;;;;;;;6.40;99.90;;;;;;5097052;28;19924;-75
2022/05/09 05:26:43;;;;;;;;;;;6.50;99.90;;;;;;5115277;28;19930;-74
2022/05/09 05:29:09;;;;;;;;;;;6.50;99.90;;;;;;5115089;28;19923;-75
2022/05/09 05:31:35;;;;;;;;;;;6.60;99.90;;;;;;5099059;27;19968;-76
2022/05/09 05:34:00;;;;;;;;;;;6.70;99.90;;;;;;5117455;27;20013;-76
2022/05/09 05:36:26;;;;;;;;;;;6.80;99.90;;;;;;5117120;27;19927;-78
2022/05/09 05:38:51;;;;;;;;;;;6.90;99.90;;;;;;5124742;27;20276;-79
2022/05/09 05:41:18;;;;;;;;;;;6.90;99.90;;;;;;5079781;28;19965;-78
2022/05/09 05:43:44;;;;;;;;;;;7.10;99.90;;;;;;5125734;27;20095;-76
2022/05/09 05:46:10;;;;;;;;;;;7.10;99.90;;;;;;5134787;27;19969;-77
2022/05/09 05:48:36;;;;;;;;;;;7.30;99.90;;;;;;5133720;27;20390;-75
2022/05/09 05:51:01;;;;;;;;;;;7.30;99.90;;;;;;5096745;28;19924;-75
2022/05/09 05:53:27;;;;;;;;;;;7.50;99.90;;;;;;5096238;28;20401;-76
2022/05/09 05:55:53;;;;;;;;;;;7.60;99.90;;;;;;5096604;28;19924;-77
2022/05/09 05:58:19;;;;;;;;;;;7.60;99.90;;;;;;5114372;28;19977;-76
2022/05/09 06:00:44;;;;;;;;;;;7.70;99.90;;;;;;5098414;28;19927;-75
2022/05/09 06:03:10;;;;;;;;;;;7.70;99.90;;;;;;5079498;28;20399;-77
2022/05/09 06:05:36;;;;;;;;;;;7.80;99.90;;;;;;5127866;27;19931;-76
2022/05/09 06:08:02;;;;;;;;;;;7.90;99.90;;;;;;5109372;28;19924;-74
2022/05/09 06:10:30;;;;;;;;;;;8.00;99.90;;;;;;5109466;27;19923;-77
2022/05/09 06:12:56;;;;;;;;;;;8.10;99.90;;;;;;5111768;28;19931;-76
2022/05/09 06:15:29;;;;;;;;;;;8.20;99.90;;;;;;5128807;27;19962;-75
2022/05/09 06:17:56;;;;;;;;;;;8.30;99.90;;;;;;5132543;27;19924;-75
2022/05/09 06:20:22;;;;;;;;;;;8.40;99.90;;;;;;5114253;27;20431;-76
2022/05/09 06:22:48;;;;;;;;;;;8.50;99.90;;;;;;5115118;27;20474;-76
2022/05/09 06:25:15;;;;;;;;;;;8.60;99.90;;;;;;5122810;27;20018;-81
2022/05/09 06:27:41;;;;;;;;;;;8.80;99.90;;;;;;5116612;27;19919;-76
2022/05/09 06:30:08;;;;;;;;;;;8.90;99.90;;;;;;5112278;28;20018;-76
2022/05/09 06:32:34;;;;;;;;;;;9.00;99.90;;;;;;5114115;28;19931;-75
2022/05/09 06:34:59;;;;;;;;;;;9.10;99.90;;;;;;5096322;28;19931;-75
2022/05/09 06:37:25;;;;;;;;;;;9.20;99.90;;;;;;5113984;28;19924;-76
2022/05/09 06:39:54;;;;;;;;;;;9.30;99.90;;;;;;5104268;27;19926;-76
2022/05/09 06:42:19;;;;;;;;;;;9.40;99.90;;;;;;5115000;27;20055;-77
2022/05/09 06:44:46;;;;;;;;;;;9.50;99.90;;;;;;5114523;28;19923;-75
2022/05/09 06:47:12;;;;;;;;;;;9.60;99.90;;;;;;5113507;27;19932;-74
2022/05/09 06:49:38;;;;;;;;;;;9.70;99.90;;;;;;5107787;27;19931;-80
2022/05/09 06:52:04;;;;;;;;;;;9.80;99.90;;;;;;5091872;28;19923;-76
2022/05/09 06:54:29;;;;;;;;;;;9.90;99.90;;;;;;5096956;28;20039;-78
2022/05/09 06:56:55;;;;;;;;;;;10.10;99.90;;;;;;5112195;28;19935;-76
2022/05/09 06:59:20;;;;;;;;;;;10.20;99.90;;;;;;5113574;28;20015;-77
2022/05/09 07:01:46;;;;;;;;;;;10.30;99.90;;;;;;5121859;27;20002;-77
2022/05/09 07:04:12;;;;;;;;;;;10.40;99.90;;;;;;5106056;27;19924;-77
2022/05/09 07:06:38;;;;;;;;;;;10.50;99.90;;;;;;5114662;27;20394;-78
2022/05/09 07:09:10;;;;;;;;;;;10.60;99.90;;;;;;5115751;27;19923;-76
2022/05/09 07:11:39;;;;;;;;;;;10.70;99.90;;;;;;5115970;27;19928;-77
2022/05/09 07:14:04;;;;;;;;;;;10.90;99.90;;;;;;5109318;28;20383;-77
2022/05/09 07:16:30;;;;;;;;;;;11.00;99.90;;;;;;5095280;28;20003;-77
2022/05/09 07:18:56;;;;;;;;;;;11.10;99.90;;;;;;5095456;28;19924;-77
2022/05/09 07:21:21;;;;;;;;;;;11.30;99.90;;;;;;5095338;28;19943;-78
2022/05/09 07:23:47;;;;;;;;;;;11.40;99.90;;;;;;5095271;28;19975;-78
2022/05/09 07:26:13;;;;;;;;;;;11.50;99.90;;;;;;5113253;27;19923;-77
2022/05/09 07:28:40;;;;;;;;;;;11.60;99.90;;;;;;5113084;28;19962;-77
2022/05/09 07:31:06;;;;;;;;;;;11.70;99.90;;;;;;5115836;27;19930;-76
2022/05/09 07:33:31;;;;;;;;;;;11.80;99.90;;;;;;5115157;27;19923;-76
2022/05/09 07:35:57;;;;;;;;;;;11.90;99.90;;;;;;5132915;27;20406;-76
2022/05/09 07:38:23;;;;;;;;;;;12.10;99.90;;;;;;5087089;28;20376;-80
2022/05/09 07:40:49;;;;;;;;;;;12.10;99.90;;;;;;5113010;28;19924;-76
2022/05/09 07:43:26;;;;;;;;;;;12.20;99.90;;;;;;5094816;28;20437;-76
2022/05/09 07:45:52;;;;;;;;;;;12.30;99.90;;;;;;5104541;27;19989;-76
2022/05/09 07:48:21;;;;;;;;;;;12.50;99.90;;;;;;5112614;28;19923;-77
2022/05/09 07:50:46;;;;;;;;;;;12.50;99.90;;;;;;5115164;28;19931;-76
2022/05/09 07:53:13;;;;;;;;;;;12.60;99.90;;;;;;5105354;28;20444;-77
2022/05/09 07:55:40;;;;;;;;;;;12.70;99.90;;;;;;5100775;28;19923;-76
2022/05/09 07:58:05;;;;;;;;;;;12.80;99.90;;;;;;5115539;28;20297;-77
2022/05/09 08:00:31;;;;;;;;;;;12.90;99.90;;;;;;5114392;28;19924;-76
2022/05/09 08:02:57;;;;;;;;;;;13.00;99.90;;;;;;5112902;28;19934;-76
2022/05/09 08:05:22;;;;;;;;;;;13.10;99.90;;;;;;5095510;28;19935;-77
2022/05/09 08:07:49;;;;;;;;;;;13.10;99.90;;;;;;5094847;28;19928;-77
2022/05/09 08:10:17;;;;;;;;;;;13.20;99.90;;;;;;5112054;28;19935;-76
2022/05/09 08:12:43;;;;;;;;;;;13.30;99.90;;;;;;5094660;28;20050;-76
2022/05/09 08:15:10;;;;;;;;;;;13.50;99.90;;;;;;5112859;28;19931;-76
2022/05/09 08:17:36;;;;;;;;;;;13.60;99.90;;;;;;5111028;28;19923;-77
2022/05/09 08:20:01;;;;;;;;;;;13.70;99.90;;;;;;5099839;28;19924;-77
2022/05/09 08:22:31;;;;;;;;;;;13.80;99.90;;;;;;5104819;28;19935;-78
2022/05/09 08:25:04;;;;;;;;;;;13.90;99.90;;;;;;5094800;28;20280;-79
2022/05/09 08:27:30;;;;;;;;;;;13.90;99.90;;;;;;5084219;27;20020;-79
2022/05/09 08:29:57;;;;;;;;;;;14.10;99.90;;;;;;5106680;27;20006;-77
2022/05/09 08:32:26;;;;;;;;;;;14.20;99.90;;;;;;5105304;28;19967;-75
2022/05/09 08:34:52;;;;;;;;;;;14.40;99.90;;;;;;5103922;27;20392;-75
2022/05/09 08:37:20;;;;;;;;;;;14.50;99.90;;;;;;5120669;27;19924;-78
2022/05/09 08:39:46;;;;;;;;;;;14.60;99.90;;;;;;5119412;27;19957;-78
2022/05/09 08:42:32;;;;;;;;;;;14.70;99.90;;;;;;5107135;27;19927;-77
2022/05/09 08:45:27;;;;;;;;;;;14.80;99.90;;;;;;5092982;27;20018;-75
2022/05/09 08:48:11;;;;;;;;;;;14.90;99.90;;;;;;5095786;27;20386;-77
2022/05/09 08:50:40;;;;;;;;;;;15.10;99.90;;;;;;5090834;27;19927;-75
2022/05/09 08:53:10;;;;;;;;;;;15.20;99.90;;;;;;5126294;27;19931;-73
2022/05/09 08:55:39;;;;;;;;;;;15.30;99.90;;;;;;5130494;27;19931;-73
2022/05/09 08:58:05;;;;;;;;;;;15.50;99.90;;;;;;5131468;27;19927;-74
2022/05/09 09:00:31;;;;;;;;;;;15.60;99.90;;;;;;5116954;27;19930;-73
2022/05/09 09:03:00;;;;;;;;;;;15.70;99.90;;;;;;5080674;28;19977;-73
2022/05/09 09:05:26;;;;;;;;;;;15.80;99.90;;;;;;5097594;28;19927;-74
2022/05/09 09:08:10;;;;;;;;;;;15.90;99.90;;;;;;5115200;28;20372;-78
2022/05/09 09:10:44;;;;;;;;;;;16.00;99.90;;;;;;5095006;27;19930;-78
2022/05/09 09:13:23;;;;;;;;;;;16.10;99.90;;;;;;5117559;27;19934;-78
2022/05/09 09:16:01;;;;;;;;;;;16.10;99.90;;;;;;5100585;27;20014;-74
2022/05/09 09:18:30;;;;;;;;;;;16.30;99.90;;;;;;5118115;27;19928;-76
2022/05/09 09:20:59;;;;;;;;;;;16.40;99.90;;;;;;5100271;28;20069;-76
2022/05/09 09:23:25;;;;;;;;;;;16.50;99.90;;;;;;5098711;27;19938;-76
2022/05/09 09:25:56;;;;;;;;;;;16.60;99.90;;;;;;5080294;28;19927;-76
2022/05/09 09:28:33;;;;;;;;;;;16.60;99.90;;;;;;5097605;28;19924;-76
2022/05/09 09:31:00;;;;;;;;;;;16.70;99.90;;;;;;5115109;28;20427;-76
2022/05/09 09:33:26;;;;;;;;;;;16.70;99.90;;;;;;5095372;27;19924;-77
2022/05/09 09:35:54;;;;;;;;;;;16.80;99.90;;;;;;5117703;27;19946;-74
2022/05/09 09:38:35;;;;;;;;;;;16.90;99.90;;;;;;5135954;27;19953;-74
2022/05/09 09:41:16;;;;;;;;;;;16.90;99.90;;;;;;5117531;27;20317;-74
2022/05/09 09:43:41;;;;;;;;;;;17.00;99.90;;;;;;5133762;27;19968;-76
2022/05/09 09:46:07;;;;;;;;;;;17.10;99.90;;;;;;5106197;28;19927;-73
2022/05/09 09:48:34;;;;;;;;;;;17.20;99.90;;;;;;5096749;28;19924;-72
2022/05/09 09:51:01;;;;;;;;;;;17.30;99.90;;;;;;5096518;28;19924;-73
2022/05/09 09:53:31;;;;;;;;;;;17.50;98.30;;;;;;5116120;27;20317;-73
2022/05/09 09:56:06;;;;;;;;;;;17.50;98.80;;;;;;5080143;28;19935;-84
2022/05/09 09:58:32;;;;;;;;;;;17.60;99.90;;;;;;5096987;27;19998;-85
2022/05/09 10:01:03;;;;;;;;;;;17.80;99.90;;;;;;5097041;28;19935;-91
2022/05/09 10:03:29;;;;;;;;;;;18.10;99.80;;;;;;5097167;28;19945;-91
2022/05/09 10:05:56;;;;;;;;;;;18.30;99.40;;;;;;5100463;27;19927;-82
2022/05/09 10:08:30;;;;;;;;;;;18.50;98.90;;;;;;5117525;27;20430;-83
2022/05/09 10:11:04;;;;;;;;;;;18.60;95.90;;;;;;5104962;27;19987;-82
2022/05/09 10:13:36;;;;;;;;;;;18.60;92.60;;;;;;5083004;28;19928;-85
2022/05/09 10:16:11;;;;;;;;;;;18.80;90.60;;;;;;5082932;27;19927;-85
2022/05/09 10:18:37;;;;;;;;;;;18.90;85.60;;;;;;5116631;27;20349;-86
2022/05/09 10:24:47;;;;;;;;;;;19.10;82.80;;;;;;5110263;27;19932;-86
2022/05/09 10:26:52;;;;;;;;;;;19.20;80.30;;;;;;5102409;27;19955;-90
2022/05/09 10:29:18;;;;;;;;;;;19.30;82.60;;;;;;5118870;27;19934;-91
2022/05/09 10:31:47;;;;;;;;;;;19.40;82.90;;;;;;5098002;28;20002;-84
2022/05/09 10:34:12;;;;;;;;;;;19.50;79.20;;;;;;5105101;28;19967;-87
2022/05/09 10:36:58;;;;;;;;;;;19.60;80.60;;;;;;5114585;28;19981;-91
2022/05/09 10:39:26;;;;;;;;;;;19.80;83.50;;;;;;5083452;27;19923;-90
2022/05/09 10:41:54;;;;;;;;;;;19.80;75.50;;;;;;5114020;27;19976;-91
2022/05/09 10:44:27;;;;;;;;;;;19.90;76.80;;;;;;5102500;27;19927;-89
2022/05/09 10:46:56;;;;;;;;;;;20.00;77.30;;;;;;5095673;28;19924;-86
2022/05/09 10:49:40;;;;;;;;;;;20.00;74.30;;;;;;5106098;27;20320;-90
2022/05/09 10:52:21;;;;;;;;;;;20.10;78.10;;;;;;5084330;27;19978;-83
2022/05/09 10:54:52;;;;;;;;;;;20.00;72.70;;;;;;5122370;27;19931;-81
2022/05/09 10:57:30;;;;;;;;;;;20.10;69.60;;;;;;5103790;27;20600;-82
2022/05/09 11:00:02;;;;;;;;;;;20.20;70.00;;;;;;5102162;27;19923;-83
2022/05/09 11:02:30;;;;;;;;;;;20.50;69.90;;;;;;5083499;27;19927;-82
2022/05/09 11:04:55;;;;;;;;;;;20.60;69.40;;;;;;5102510;27;20006;-82
2022/05/09 11:07:35;;;;;;;;;;;20.60;68.10;;;;;;5116971;27;20443;-84
2022/05/09 11:10:20;;;;;;;;;;;20.70;67.10;;;;;;5095639;28;19923;-92
2022/05/09 11:12:57;;;;;;;;;;;20.60;68.50;;;;;;5113491;27;19963;-86
2022/05/09 11:15:27;;;;;;;;;;;20.80;67.30;;;;;;5116261;27;20252;-88
2022/05/09 11:18:07;;;;;;;;;;;20.90;66.30;;;;;;5115920;27;19924;-89
2022/05/09 11:20:52;;;;;;;;;;;21.10;68.10;;;;;;5098930;27;19975;-86
2022/05/09 11:23:24;;;;;;;;;;;21.30;66.00;;;;;;5109251;27;19984;-83
2022/05/09 11:26:08;;;;;;;;;;;21.60;69.00;;;;;;5094735;27;19934;-87
2022/05/09 11:28:43;;;;;;;;;;;21.90;67.00;;;;;;5113728;27;19969;-78
2022/05/09 11:31:27;;;;;;;;;;;22.20;63.70;;;;;;5109029;28;19969;-88
2022/05/09 11:33:59;;;;;;;;;;;22.40;59.60;;;;;;5102757;28;19924;-81
2022/05/09 11:36:25;;;;;;;;;;;22.80;60.60;;;;;;5093674;27;20295;-83
2022/05/09 11:39:09;;;;;;;;;;;23.10;59.60;;;;;;5133043;27;19931;-85
2022/05/09 11:41:53;;;;;;;;;;;23.30;55.70;;;;;;5115244;27;19927;-86
2022/05/09 11:44:21;;;;;;;;;;;23.50;55.60;;;;;;5115218;28;20355;-88
2022/05/09 11:47:22;;;;;;;;;;;23.70;54.80;;;;;;5097094;28;19924;-88
2022/05/09 11:49:54;;;;;;;;;;;23.90;55.30;;;;;;5033160;28;19924;-88
2022/05/09 11:52:26;;;;;;;;;;;24.30;55.00;;;;;;5085095;28;19927;-88
2022/05/09 11:54:52;;;;;;;;;;;24.50;55.70;;;;;;5112412;28;20368;-89
2022/05/09 11:57:30;;;;;;;;;;;24.80;53.20;;;;;;5096066;28;19924;-89
2022/05/09 11:59:57;;;;;;;;;;;24.50;50.60;;;;;;5112837;28;20316;-81
2022/05/09 12:02:49;;;;;;;;;;;24.30;49.40;;;;;;5096823;28;19930;-83
2022/05/09 12:05:24;;;;;;;;;;;24.50;51.10;;;;;;5077076;28;19927;-83
2022/05/09 12:07:54;;;;;;;;;;;24.30;50.50;;;;;;5099136;27;19934;-82
2022/05/09 12:10:27;;;;;;;;;;;24.40;50.20;;;;;;5082248;28;19924;-85
2022/05/09 12:12:57;;;;;;;;;;;24.50;49.50;;;;;;5099016;28;19927;-85
2022/05/09 12:15:22;;;;;;;;;;;24.60;50.40;;;;;;5116952;28;20372;-88
2022/05/09 12:18:08;;;;;;;;;;;24.70;49.70;;;;;;5129445;27;19939;-84
2022/05/09 12:20:36;;;;;;;;;;;24.70;47.40;;;;;;5103884;28;20398;-92
2022/05/09 12:23:03;;;;;;;;;;;25.00;49.20;;;;;;5117056;27;19923;-92
2022/05/09 12:28:06;;;;;;;;;;;25.30;49.10;;;;;;5113343;27;20014;-88
2022/05/09 12:30:51;;;;;;;;;;;25.50;48.10;;;;;;5108397;27;19975;-81
2022/05/09 12:33:26;;;;;;;;;;;25.40;48.30;;;;;;5134639;27;19924;-84
2022/05/09 12:35:52;;;;;;;;;;;25.50;48.70;;;;;;5153637;27;19919;-84
2022/05/09 12:38:23;;;;;;;;;;;25.50;46.50;;;;;;5104877;28;20010;-83
2022/05/09 12:40:56;;;;;;;;;;;25.40;48.50;;;;;;5098929;28;20002;-86
2022/05/09 12:43:22;;;;;;;;;;;25.50;47.60;;;;;;5116198;28;19967;-88
2022/05/09 12:45:47;;;;;;;;;;;25.60;48.20;;;;;;5117356;27;20019;-82
2022/05/09 12:48:14;;;;;;;;;;;25.60;46.10;;;;;;5098610;28;20395;-83
2022/05/09 12:50:43;;;;;;;;;;;25.60;46.30;;;;;;5116030;27;19946;-85
2022/05/09 12:53:10;;;;;;;;;;;25.30;47.40;;;;;;5096079;28;19924;-88
2022/05/09 12:55:56;;;;;;;;;;;25.20;47.60;;;;;;5108114;27;19981;-88
2022/05/09 12:58:27;;;;;;;;;;;25.10;46.50;;;;;;5125947;27;19971;-87
2022/05/09 13:00:59;;;;;;;;;;;25.40;48.00;;;;;;5114289;28;19984;-85
2022/05/09 13:03:24;;;;;;;;;;;25.40;46.20;;;;;;5114028;28;20047;-86
2022/05/09 13:05:50;;;;;;;;;;;25.00;46.50;;;;;;5095499;28;19954;-85
2022/05/09 13:08:15;;;;;;;;;;;25.00;47.40;;;;;;5114452;27;19943;-83
2022/05/09 13:10:47;;;;;;;;;;;25.10;45.30;;;;;;5121842;27;19924;-82
2022/05/09 13:13:21;;;;;;;;;;;25.40;46.10;;;;;;5121689;27;19923;-80
2022/05/09 13:15:47;;;;;;;;;;;25.50;45.40;;;;;;5120818;27;20026;-82
2022/05/09 13:18:14;;;;;;;;;;;25.70;47.60;;;;;;5116578;27;20046;-80
2022/05/09 13:20:48;;;;;;;;;;;25.50;43.60;;;;;;5123530;27;19972;-81
2022/05/09 13:23:14;;;;;;;;;;;25.70;46.40;;;;;;5113461;27;19932;-81
2022/05/09 13:25:41;;;;;;;;;;;25.40;44.70;;;;;;5119203;27;19927;-81
2022/05/09 13:28:11;;;;;;;;;;;25.50;45.50;;;;;;5106971;27;19931;-81
2022/05/09 13:30:38;;;;;;;;;;;25.60;45.10;;;;;;5104086;27;19923;-81
2022/05/09 13:33:04;;;;;;;;;;;25.60;45.60;;;;;;5104512;27;19927;-80
2022/05/09 13:35:37;;;;;;;;;;;25.70;45.20;;;;;;5122795;27;19928;-83
2022/05/09 13:38:23;;;;;;;;;;;25.60;45.20;;;;;;5122116;27;19981;-82
2022/05/09 13:40:50;;;;;;;;;;;25.60;44.40;;;;;;5123756;27;19971;-81
2022/05/09 13:43:20;;;;;;;;;;;25.10;43.10;;;;;;5109599;27;19927;-80
2022/05/09 13:45:46;;;;;;;;;;;25.10;44.50;;;;;;5132514;27;19927;-82
2022/05/09 13:48:20;;;;;;;;;;;24.90;44.90;;;;;;5103638;27;19924;-81
2022/05/09 13:50:49;;;;;;;;;;;24.90;46.00;;;;;;5113300;28;19928;-82
2022/05/09 13:53:20;;;;;;;;;;;24.90;45.10;;;;;;5113021;28;19928;-82
2022/05/09 13:55:45;;;;;;;;;;;24.90;46.00;;;;;;5113259;28;19986;-83
2022/05/09 13:58:12;;;;;;;;;;;24.80;46.00;;;;;;5096962;27;19997;-81
2022/05/09 14:00:40;;;;;;;;;;;24.40;51.20;;;;;;5107022;27;20279;-80
2022/05/09 14:03:11;;;;;;;;;;;23.90;54.30;;;;;;5133523;27;19923;-81
2022/05/09 14:05:38;;;;;;;;;;;23.40;58.40;;;;;;5114569;27;20068;-79
2022/05/09 14:08:04;;;;;;;;;;;23.00;56.90;;;;;;5118657;27;19928;-81
2022/05/09 14:10:41;;;;;;;;;;;22.10;56.90;;;;;;5118334;27;19931;-80
2022/05/09 14:13:25;;;;;;;;;;;21.90;59.40;;;;;;5117315;27;19924;-80
2022/05/09 14:15:57;;;;;;;;;;;21.80;57.10;;;;;;5116949;27;20010;-80
2022/05/09 14:18:27;;;;;;;;;;;21.90;57.90;;;;;;5114671;27;20373;-79
2022/05/09 14:20:57;;;;;;;;;;;22.00;57.00;;;;;;5111551;27;20268;-81
2022/05/09 14:23:23;;;;;;;;;;;22.00;56.30;;;;;;5132799;27;19976;-81
2022/05/09 14:31:27;;;;;;;;;;;22.30;56.80;;;;;;5114688;27;20319;-79
2022/05/09 14:33:52;;;;;;;;;;;22.30;55.80;;;;;;5134470;27;19935;-79
2022/05/09 14:36:29;;;;;;;;;;;22.50;56.00;;;;;;5122185;27;20007;-79
2022/05/09 14:38:56;;;;;;;;;;;22.30;55.80;;;;;;5096160;28;19970;-80
2022/05/09 14:41:37;;;;;;;;;;;22.00;57.20;;;;;;5095590;28;19924;-78
2022/05/09 14:44:17;;;;;;;;;;;21.90;57.20;;;;;;5094259;28;19930;-78
2022/05/09 14:46:55;;;;;;;;;;;21.90;58.20;;;;;;5100698;27;19927;-77
2022/05/09 14:49:20;;;;;;;;;;;22.00;58.80;;;;;;5116225;27;19927;-79
2022/05/09 14:51:54;;;;;;;;;;;22.00;57.70;;;;;;5116125;27;19930;-79